sensor_id;sensor_type;location;lat;lon;timestamp;pressure;altitude;pressure_sealevel;temperature;humidity
3917;BME280;1973;50.518;7.318;2023-05-09T00:00:01;101143.25;;;15.45;100.00
3917;BME280;1973;50.518;7.318;2023-05-09T00:02:27;101135.19;;;15.43;100.00
3917;BME280;1973;50.518;7.318;2023-05-09T00:04:55;101143.72;;;15.42;100.00
3917;BME280;1973;50.518;7.318;2023-05-09T00:07:22;101142.28;;;15.39;100.00
3917;BME280;1973;50.518;7.318;2023-05-09T00:09:48;101128.66;;;15.38;100.00
3917;BME280;1973;50.518;7.318;2023-05-09T00:12:14;101129.75;;;15.37;100.00
3917;BME280;1973;50.518;7.318;2023-05-09T00:14:41;101118.03;;;15.35;100.00
3917;BME280;1973;50.518;7.318;2023-05-09T00:17:10;101109.97;;;15.33;100.00
3917;BME280;1973;50.518;7.318;2023-05-09T00:19:39;101119.09;;;15.34;100.00
3917;BME280;1973;50.518;7.318;2023-05-09T00:22:06;101111.25;;;15.31;100.00
3917;BME280;1973;50.518;7.318;2023-05-09T00:24:34;101111.75;;;15.28;100.00
3917;BME280;1973;50.518;7.318;2023-05-09T00:27:00;101111.75;;;15.28;100.00
3917;BME280;1973;50.518;7.318;2023-05-09T00:29:27;101101.72;;;15.27;100.00
3917;BME280;1973;50.518;7.318;2023-05-09T00:31:53;101104.75;;;15.25;100.00
3917;BME280;1973;50.518;7.318;2023-05-09T00:34:20;101104.13;;;15.23;100.00
3917;BME280;1973;50.518;7.318;2023-05-09T00:36:46;101101.63;;;15.22;100.00
3917;BME280;1973;50.518;7.318;2023-05-09T00:39:13;101095.44;;;15.20;100.00
3917;BME280;1973;50.518;7.318;2023-05-09T00:41:39;101108.25;;;15.21;100.00
3917;BME280;1973;50.518;7.318;2023-05-09T00:44:05;101102.69;;;15.21;100.00
3917;BME280;1973;50.518;7.318;2023-05-09T00:46:32;101081.59;;;15.20;100.00
3917;BME280;1973;50.518;7.318;2023-05-09T00:48:59;101090.53;;;15.22;100.00
3917;BME280;1973;50.518;7.318;2023-05-09T00:51:27;101086.66;;;15.23;100.00
3917;BME280;1973;50.518;7.318;2023-05-09T00:53:53;101081.72;;;15.25;100.00
3917;BME280;1973;50.518;7.318;2023-05-09T00:56:20;101082.31;;;15.27;100.00
3917;BME280;1973;50.518;7.318;2023-05-09T00:58:47;101080.16;;;15.29;100.00
3917;BME280;1973;50.518;7.318;2023-05-09T01:01:14;101075.81;;;15.33;100.00
3917;BME280;1973;50.518;7.318;2023-05-09T01:03:42;101073.63;;;15.35;100.00
3917;BME280;1973;50.518;7.318;2023-05-09T01:11:32;101068.81;;;15.42;100.00
3917;BME280;1973;50.518;7.318;2023-05-09T01:17:00;101060.00;;;15.45;100.00
3917;BME280;1973;50.518;7.318;2023-05-09T01:22:34;101059.53;;;15.48;100.00
3917;BME280;1973;50.518;7.318;2023-05-09T01:30:27;101052.28;;;15.47;100.00
3917;BME280;1973;50.518;7.318;2023-05-09T01:32:58;101049.25;;;15.48;100.00
3917;BME280;1973;50.518;7.318;2023-05-09T01:35:25;101060.34;;;15.48;100.00
3917;BME280;1973;50.518;7.318;2023-05-09T01:37:56;101043.72;;;15.48;100.00
3917;BME280;1973;50.518;7.318;2023-05-09T01:40:24;101041.81;;;15.49;100.00
3917;BME280;1973;50.518;7.318;2023-05-09T01:42:59;101048.44;;;15.48;100.00
3917;BME280;1973;50.518;7.318;2023-05-09T01:45:27;101043.97;;;15.47;100.00
3917;BME280;1973;50.518;7.318;2023-05-09T01:47:56;101045.66;;;15.48;100.00
3917;BME280;1973;50.518;7.318;2023-05-09T01:50:23;101045.66;;;15.48;100.00
3917;BME280;1973;50.518;7.318;2023-05-09T01:52:54;101047.38;;;15.49;100.00
3917;BME280;1973;50.518;7.318;2023-05-09T01:55:25;101044.38;;;15.50;100.00
3917;BME280;1973;50.518;7.318;2023-05-09T01:57:52;101041.34;;;15.52;100.00
3917;BME280;1973;50.518;7.318;2023-05-09T02:00:19;101038.31;;;15.53;100.00
3917;BME280;1973;50.518;7.318;2023-05-09T02:02:47;101035.31;;;15.55;100.00
3917;BME280;1973;50.518;7.318;2023-05-09T02:05:15;101034.84;;;15.58;100.00
3917;BME280;1973;50.518;7.318;2023-05-09T02:07:43;101037.59;;;15.58;100.00
3917;BME280;1973;50.518;7.318;2023-05-09T02:10:12;101037.59;;;15.58;100.00
3917;BME280;1973;50.518;7.318;2023-05-09T02:12:40;101033.50;;;15.61;100.00
3917;BME280;1973;50.518;7.318;2023-05-09T02:15:07;101034.34;;;15.61;100.00
3917;BME280;1973;50.518;7.318;2023-05-09T02:17:34;101034.34;;;15.61;100.00
3917;BME280;1973;50.518;7.318;2023-05-09T02:20:00;101028.78;;;15.61;100.00
3917;BME280;1973;50.518;7.318;2023-05-09T02:22:27;101026.59;;;15.63;100.00
3917;BME280;1973;50.518;7.318;2023-05-09T02:24:53;101028.28;;;15.64;100.00
3917;BME280;1973;50.518;7.318;2023-05-09T02:27:20;101031.06;;;15.64;100.00
3917;BME280;1973;50.518;7.318;2023-05-09T02:29:49;101031.69;;;15.66;100.00
3917;BME280;1973;50.518;7.318;2023-05-09T02:32:22;101035.91;;;15.69;100.00
3917;BME280;1973;50.518;7.318;2023-05-09T02:34:52;101030.13;;;15.70;100.00
3917;BME280;1973;50.518;7.318;2023-05-09T02:37:20;101032.41;;;15.73;100.00
3917;BME280;1973;50.518;7.318;2023-05-09T02:39:47;101035.75;;;15.75;100.00
3917;BME280;1973;50.518;7.318;2023-05-09T02:42:20;101034.19;;;15.79;100.00
3917;BME280;1973;50.518;7.318;2023-05-09T02:44:47;101029.84;;;15.83;100.00
3917;BME280;1973;50.518;7.318;2023-05-09T02:47:13;101019.31;;;15.85;100.00
3917;BME280;1973;50.518;7.318;2023-05-09T02:49:40;101022.72;;;15.87;100.00
3917;BME280;1973;50.518;7.318;2023-05-09T02:52:06;101015.22;;;15.88;100.00
3917;BME280;1973;50.518;7.318;2023-05-09T02:54:32;101013.28;;;15.88;100.00
3917;BME280;1973;50.518;7.318;2023-05-09T02:56:59;101013.28;;;15.88;100.00
3917;BME280;1973;50.518;7.318;2023-05-09T02:59:25;101003.84;;;15.89;100.00
3917;BME280;1973;50.518;7.318;2023-05-09T03:01:52;101006.63;;;15.89;100.00
3917;BME280;1973;50.518;7.318;2023-05-09T03:04:19;101002.78;;;15.90;100.00
3917;BME280;1973;50.518;7.318;2023-05-09T03:06:45;101003.41;;;15.92;100.00
3917;BME280;1973;50.518;7.318;2023-05-09T03:09:12;101002.53;;;15.92;100.00
3917;BME280;1973;50.518;7.318;2023-05-09T03:11:38;100995.06;;;15.92;100.00
3917;BME280;1973;50.518;7.318;2023-05-09T03:14:04;100994.22;;;15.92;100.00
3917;BME280;1973;50.518;7.318;2023-05-09T03:16:33;101002.53;;;15.92;100.00
3917;BME280;1973;50.518;7.318;2023-05-09T03:19:00;101000.84;;;15.91;100.00
3917;BME280;1973;50.518;7.318;2023-05-09T03:21:26;100996.13;;;15.91;100.00
3917;BME280;1973;50.518;7.318;2023-05-09T03:23:52;100993.59;;;15.90;100.00
3917;BME280;1973;50.518;7.318;2023-05-09T03:26:19;100992.75;;;15.89;100.00
3917;BME280;1973;50.518;7.318;2023-05-09T03:28:46;100992.75;;;15.89;100.00
3917;BME280;1973;50.518;7.318;2023-05-09T03:31:14;100990.22;;;15.88;100.00
3917;BME280;1973;50.518;7.318;2023-05-09T03:33:41;100982.75;;;15.88;100.00
3917;BME280;1973;50.518;7.318;2023-05-09T03:36:07;100987.19;;;15.89;100.00
3917;BME280;1973;50.518;7.318;2023-05-09T03:38:34;100986.38;;;15.89;100.00
3917;BME280;1973;50.518;7.318;2023-05-09T03:41:00;100992.75;;;15.89;100.00
3917;BME280;1973;50.518;7.318;2023-05-09T03:43:27;100981.41;;;15.91;100.00
3917;BME280;1973;50.518;7.318;2023-05-09T03:45:53;100981.41;;;15.91;100.00
3917;BME280;1973;50.518;7.318;2023-05-09T03:48:19;100975.63;;;15.92;100.00
3917;BME280;1973;50.518;7.318;2023-05-09T03:50:46;100970.06;;;15.92;100.00
3917;BME280;1973;50.518;7.318;2023-05-09T03:53:12;100971.72;;;15.93;100.00
3917;BME280;1973;50.518;7.318;2023-05-09T03:55:39;100976.44;;;15.93;100.00
3917;BME280;1973;50.518;7.318;2023-05-09T03:58:06;100968.38;;;15.91;100.00
3917;BME280;1973;50.518;7.318;2023-05-09T04:00:32;100962.81;;;15.91;100.00
3917;BME280;1973;50.518;7.318;2023-05-09T04:02:59;100967.28;;;15.92;100.00
3917;BME280;1973;50.518;7.318;2023-05-09T04:05:25;100966.19;;;15.93;100.00
3917;BME280;1973;50.518;7.318;2023-05-09T04:07:52;100958.47;;;15.95;100.00
3917;BME280;1973;50.518;7.318;2023-05-09T04:10:19;100965.69;;;15.96;100.00
3917;BME280;1973;50.518;7.318;2023-05-09T04:12:45;100967.38;;;15.97;100.00
3917;BME280;1973;50.518;7.318;2023-05-09T04:15:11;100954.56;;;15.96;100.00
3917;BME280;1973;50.518;7.318;2023-05-09T04:17:38;100954.56;;;15.96;100.00
3917;BME280;1973;50.518;7.318;2023-05-09T04:20:05;100961.25;;;15.95;100.00
3917;BME280;1973;50.518;7.318;2023-05-09T04:22:33;100949.00;;;15.96;100.00
3917;BME280;1973;50.518;7.318;2023-05-09T04:24:59;100936.25;;;15.95;100.00
3917;BME280;1973;50.518;7.318;2023-05-09T04:27:26;100940.69;;;15.96;100.00
3917;BME280;1973;50.518;7.318;2023-05-09T04:29:53;100939.03;;;15.95;100.00
3917;BME280;1973;50.518;7.318;2023-05-09T04:32:19;100942.66;;;15.96;100.00
3917;BME280;1973;50.518;7.318;2023-05-09T04:34:48;100937.91;;;15.96;100.00
3917;BME280;1973;50.518;7.318;2023-05-09T04:37:14;100939.59;;;15.97;100.00
3917;BME280;1973;50.518;7.318;2023-05-09T04:39:41;100932.47;;;16.01;100.00
3917;BME280;1973;50.518;7.318;2023-05-09T04:42:07;100935.59;;;16.05;100.00
3917;BME280;1973;50.518;7.318;2023-05-09T04:44:34;100930.88;;;16.05;100.00
3917;BME280;1973;50.518;7.318;2023-05-09T04:47:01;100928.69;;;16.07;100.00
3917;BME280;1973;50.518;7.318;2023-05-09T04:49:27;100935.94;;;16.08;100.00
3917;BME280;1973;50.518;7.318;2023-05-09T04:51:53;100932.06;;;16.10;100.00
3917;BME280;1973;50.518;7.318;2023-05-09T04:54:20;100927.34;;;16.10;100.00
3917;BME280;1973;50.518;7.318;2023-05-09T04:56:46;100927.09;;;16.12;100.00
3917;BME280;1973;50.518;7.318;2023-05-09T04:59:15;100921.53;;;16.12;100.00
3917;BME280;1973;50.518;7.318;2023-05-09T05:01:42;100917.94;;;16.11;100.00
3917;BME280;1973;50.518;7.318;2023-05-09T05:04:08;100919.59;;;16.12;100.00
3917;BME280;1973;50.518;7.318;2023-05-09T05:06:35;100925.78;;;16.14;100.00
3917;BME280;1973;50.518;7.318;2023-05-09T05:09:01;100919.94;;;16.16;100.00
3917;BME280;1973;50.518;7.318;2023-05-09T05:11:28;100926.13;;;16.18;100.00
3917;BME280;1973;50.518;7.318;2023-05-09T05:13:54;100921.13;;;16.20;100.00
3917;BME280;1973;50.518;7.318;2023-05-09T05:16:21;100922.84;;;16.21;100.00
3917;BME280;1973;50.518;7.318;2023-05-09T05:18:47;100917.63;;;16.24;100.00
3917;BME280;1973;50.518;7.318;2023-05-09T05:21:14;100909.88;;;16.26;100.00
3917;BME280;1973;50.518;7.318;2023-05-09T05:23:41;100917.97;;;16.28;100.00
3917;BME280;1973;50.518;7.318;2023-05-09T05:26:08;100908.28;;;16.30;100.00
3917;BME280;1973;50.518;7.318;2023-05-09T05:28:34;100910.06;;;16.36;100.00
3917;BME280;1973;50.518;7.318;2023-05-09T05:31:01;100910.97;;;16.42;100.00
3917;BME280;1973;50.518;7.318;2023-05-09T05:33:27;100907.69;;;16.45;100.00
3917;BME280;1973;50.518;7.318;2023-05-09T05:35:53;100908.88;;;16.49;100.00
3917;BME280;1973;50.518;7.318;2023-05-09T05:38:20;100904.50;;;16.53;100.00
3917;BME280;1973;50.518;7.318;2023-05-09T05:40:46;100907.41;;;16.58;100.00
3917;BME280;1973;50.518;7.318;2023-05-09T05:43:13;100906.91;;;16.61;100.00
3917;BME280;1973;50.518;7.318;2023-05-09T05:45:39;100905.81;;;16.62;100.00
3917;BME280;1973;50.518;7.318;2023-05-09T05:48:06;100907.75;;;16.62;100.00
3917;BME280;1973;50.518;7.318;2023-05-09T05:50:32;100903.38;;;16.66;100.00
3917;BME280;1973;50.518;7.318;2023-05-09T05:52:59;100897.53;;;16.67;100.00
3917;BME280;1973;50.518;7.318;2023-05-09T05:55:26;100888.63;;;16.65;100.00
3917;BME280;1973;50.518;7.318;2023-05-09T05:57:52;100889.81;;;16.69;100.00
3917;BME280;1973;50.518;7.318;2023-05-09T06:00:19;100897.63;;;16.72;100.00
3917;BME280;1973;50.518;7.318;2023-05-09T06:02:46;100897.97;;;16.76;100.00
3917;BME280;1973;50.518;7.318;2023-05-09T06:05:15;100892.50;;;16.81;100.00
3917;BME280;1973;50.518;7.318;2023-05-09T06:07:42;100885.34;;;16.85;100.00
3917;BME280;1973;50.518;7.318;2023-05-09T06:10:09;100883.44;;;16.90;100.00
3917;BME280;1973;50.518;7.318;2023-05-09T06:12:36;100879.63;;;16.96;100.00
3917;BME280;1973;50.518;7.318;2023-05-09T06:15:04;100881.66;;;17.01;100.00
3917;BME280;1973;50.518;7.318;2023-05-09T06:17:31;100881.47;;;17.08;100.00
3917;BME280;1973;50.518;7.318;2023-05-09T06:19:57;100869.34;;;17.14;100.00
3917;BME280;1973;50.518;7.318;2023-05-09T06:22:24;100869.38;;;17.19;100.00
3917;BME280;1973;50.518;7.318;2023-05-09T06:24:50;100855.56;;;17.24;100.00
3917;BME280;1973;50.518;7.318;2023-05-09T06:27:17;100859.59;;;17.33;100.00
3917;BME280;1973;50.518;7.318;2023-05-09T06:29:43;100860.59;;;17.27;100.00
3917;BME280;1973;50.518;7.318;2023-05-09T06:32:10;100862.41;;;17.38;100.00
3917;BME280;1973;50.518;7.318;2023-05-09T06:34:36;100862.53;;;17.48;100.00
3917;BME280;1973;50.518;7.318;2023-05-09T06:37:02;100858.63;;;17.44;100.00
3917;BME280;1973;50.518;7.318;2023-05-09T06:39:29;100877.25;;;17.43;100.00
3917;BME280;1973;50.518;7.318;2023-05-09T06:41:55;100866.75;;;17.50;100.00
3917;BME280;1973;50.518;7.318;2023-05-09T06:44:22;100858.66;;;17.49;100.00
3917;BME280;1973;50.518;7.318;2023-05-09T06:46:48;100864.13;;;17.61;100.00
3917;BME280;1973;50.518;7.318;2023-05-09T06:49:15;100858.22;;;17.57;100.00
3917;BME280;1973;50.518;7.318;2023-05-09T06:51:41;100857.19;;;17.63;100.00
3917;BME280;1973;50.518;7.318;2023-05-09T06:54:08;100850.31;;;17.71;100.00
3917;BME280;1973;50.518;7.318;2023-05-09T06:56:34;100844.03;;;17.80;100.00
3917;BME280;1973;50.518;7.318;2023-05-09T06:59:01;100843.75;;;17.82;100.00
3917;BME280;1973;50.518;7.318;2023-05-09T07:01:28;100836.88;;;17.89;100.00
3917;BME280;1973;50.518;7.318;2023-05-09T07:03:54;100831.91;;;17.96;100.00
3917;BME280;1973;50.518;7.318;2023-05-09T07:06:20;100820.84;;;18.02;100.00
3917;BME280;1973;50.518;7.318;2023-05-09T07:08:47;100820.59;;;18.03;100.00
3917;BME280;1973;50.518;7.318;2023-05-09T07:11:13;100806.44;;;18.10;100.00
3917;BME280;1973;50.518;7.318;2023-05-09T07:13:40;100807.03;;;18.17;100.00
3917;BME280;1973;50.518;7.318;2023-05-09T07:16:06;100806.25;;;18.21;100.00
3917;BME280;1973;50.518;7.318;2023-05-09T07:18:33;100803.78;;;18.25;100.00
3917;BME280;1973;50.518;7.318;2023-05-09T07:21:00;100795.13;;;18.26;100.00
3917;BME280;1973;50.518;7.318;2023-05-09T07:23:26;100792.94;;;18.33;100.00
3917;BME280;1973;50.518;7.318;2023-05-09T07:25:56;100782.09;;;18.37;100.00
3917;BME280;1973;50.518;7.318;2023-05-09T07:28:24;100781.59;;;18.40;100.00
3917;BME280;1973;50.518;7.318;2023-05-09T07:30:51;100784.16;;;18.46;100.00
3917;BME280;1973;50.518;7.318;2023-05-09T07:33:17;100778.28;;;18.48;100.00
3917;BME280;1973;50.518;7.318;2023-05-09T07:35:44;100771.69;;;18.54;100.00
3917;BME280;1973;50.518;7.318;2023-05-09T07:38:10;100773.88;;;18.52;100.00
3917;BME280;1973;50.518;7.318;2023-05-09T07:40:37;100765.56;;;18.57;100.00
3917;BME280;1973;50.518;7.318;2023-05-09T07:43:04;100772.03;;;18.68;100.00
3917;BME280;1973;50.518;7.318;2023-05-09T07:45:30;100771.78;;;18.74;100.00
3917;BME280;1973;50.518;7.318;2023-05-09T07:47:56;100776.28;;;18.75;100.00
3917;BME280;1973;50.518;7.318;2023-05-09T07:50:23;100758.19;;;18.83;100.00
3917;BME280;1973;50.518;7.318;2023-05-09T07:52:50;100752.34;;;18.89;100.00
3917;BME280;1973;50.518;7.318;2023-05-09T07:55:18;100746.00;;;18.99;100.00
3917;BME280;1973;50.518;7.318;2023-05-09T07:57:44;100755.78;;;19.12;100.00
3917;BME280;1973;50.518;7.318;2023-05-09T08:00:11;100749.13;;;19.23;100.00
3917;BME280;1973;50.518;7.318;2023-05-09T08:02:38;100739.69;;;19.34;100.00
3917;BME280;1973;50.518;7.318;2023-05-09T08:05:04;100743.59;;;19.38;100.00
3917;BME280;1973;50.518;7.318;2023-05-09T08:07:31;100736.41;;;19.47;100.00
3917;BME280;1973;50.518;7.318;2023-05-09T08:09:57;100735.28;;;19.53;100.00
3917;BME280;1973;50.518;7.318;2023-05-09T08:12:24;100725.53;;;19.61;100.00
3917;BME280;1973;50.518;7.318;2023-05-09T08:14:50;100723.56;;;19.66;100.00
3917;BME280;1973;50.518;7.318;2023-05-09T08:17:17;100716.31;;;19.75;100.00
3917;BME280;1973;50.518;7.318;2023-05-09T08:19:43;100714.34;;;19.81;100.00
3917;BME280;1973;50.518;7.318;2023-05-09T08:22:18;100709.91;;;19.75;100.00
3917;BME280;1973;50.518;7.318;2023-05-09T08:24:45;100707.09;;;19.75;100.00
3917;BME280;1973;50.518;7.318;2023-05-09T08:27:12;100705.16;;;19.85;100.00
3917;BME280;1973;50.518;7.318;2023-05-09T08:29:40;100696.22;;;19.93;100.00
3917;BME280;1973;50.518;7.318;2023-05-09T08:32:07;100693.16;;;19.95;100.00
3917;BME280;1973;50.518;7.318;2023-05-09T08:34:34;100689.50;;;20.10;100.00
3917;BME280;1973;50.518;7.318;2023-05-09T08:37:02;100690.03;;;20.27;100.00
3917;BME280;1973;50.518;7.318;2023-05-09T08:39:29;100690.56;;;20.44;100.00
3917;BME280;1973;50.518;7.318;2023-05-09T08:41:57;100679.63;;;20.58;100.00
3917;BME280;1973;50.518;7.318;2023-05-09T08:44:25;100679.88;;;20.71;100.00
3917;BME280;1973;50.518;7.318;2023-05-09T08:46:56;100682.09;;;20.74;100.00
3917;BME280;1973;50.518;7.318;2023-05-09T08:49:24;100673.41;;;20.76;100.00
3917;BME280;1973;50.518;7.318;2023-05-09T08:51:51;100674.84;;;20.68;100.00
3917;BME280;1973;50.518;7.318;2023-05-09T08:54:18;100666.47;;;20.63;100.00
3917;BME280;1973;50.518;7.318;2023-05-09T08:56:49;100657.47;;;20.71;100.00
3917;BME280;1973;50.518;7.318;2023-05-09T08:59:16;100659.16;;;20.67;100.00
3917;BME280;1973;50.518;7.318;2023-05-09T09:01:43;100670.38;;;20.62;100.00
3917;BME280;1973;50.518;7.318;2023-05-09T09:04:10;100663.09;;;20.66;100.00
3917;BME280;1973;50.518;7.318;2023-05-09T09:06:38;100650.19;;;20.70;100.00
3917;BME280;1973;50.518;7.318;2023-05-09T09:09:06;100650.47;;;20.74;100.00
3917;BME280;1973;50.518;7.318;2023-05-09T09:11:35;100648.22;;;20.76;100.00
3917;BME280;1973;50.518;7.318;2023-05-09T09:14:10;100642.56;;;20.86;100.00
3917;BME280;1973;50.518;7.318;2023-05-09T09:16:40;100652.34;;;20.88;100.00
3917;BME280;1973;50.518;7.318;2023-05-09T09:19:11;100638.63;;;20.92;100.00
3917;BME280;1973;50.518;7.318;2023-05-09T09:21:40;100640.56;;;20.92;100.00
3917;BME280;1973;50.518;7.318;2023-05-09T09:24:13;100634.97;;;20.92;100.00
3917;BME280;1973;50.518;7.318;2023-05-09T09:26:45;100647.00;;;20.92;100.00
3917;BME280;1973;50.518;7.318;2023-05-09T09:29:13;100636.66;;;20.93;100.00
3917;BME280;1973;50.518;7.318;2023-05-09T09:31:43;100625.97;;;21.00;100.00
3917;BME280;1973;50.518;7.318;2023-05-09T09:34:12;100614.75;;;21.05;100.00
3917;BME280;1973;50.518;7.318;2023-05-09T09:36:39;100610.81;;;21.11;100.00
3917;BME280;1973;50.518;7.318;2023-05-09T09:39:06;100607.16;;;21.10;100.00
3917;BME280;1973;50.518;7.318;2023-05-09T09:41:37;100600.91;;;21.28;100.00
3917;BME280;1973;50.518;7.318;2023-05-09T09:44:15;100594.88;;;21.45;100.00
3917;BME280;1973;50.518;7.318;2023-05-09T09:49:10;100578.56;;;21.52;100.00
3917;BME280;1973;50.518;7.318;2023-05-09T09:51:36;100585.38;;;21.46;100.00
3917;BME280;1973;50.518;7.318;2023-05-09T09:54:06;100587.00;;;21.47;100.00
3917;BME280;1973;50.518;7.318;2023-05-09T09:56:46;100585.13;;;21.43;100.00
3917;BME280;1973;50.518;7.318;2023-05-09T09:59:15;100577.25;;;21.45;100.00
3917;BME280;1973;50.518;7.318;2023-05-09T10:02:03;100569.16;;;21.43;100.00
3917;BME280;1973;50.518;7.318;2023-05-09T10:04:35;100569.06;;;21.53;100.00
3917;BME280;1973;50.518;7.318;2023-05-09T10:07:08;100565.66;;;21.56;100.00
3917;BME280;1973;50.518;7.318;2023-05-09T10:09:39;100561.41;;;21.59;100.00
3917;BME280;1973;50.518;7.318;2023-05-09T10:12:07;100558.44;;;21.50;100.00
3917;BME280;1973;50.518;7.318;2023-05-09T10:14:35;100554.16;;;21.58;100.00
3917;BME280;1973;50.518;7.318;2023-05-09T10:17:03;100557.75;;;21.63;100.00
3917;BME280;1973;50.518;7.318;2023-05-09T10:19:31;100553.94;;;21.78;100.00
3917;BME280;1973;50.518;7.318;2023-05-09T10:22:04;100554.16;;;21.87;100.00
3917;BME280;1973;50.518;7.318;2023-05-09T10:24:47;100546.25;;;21.94;100.00
3917;BME280;1973;50.518;7.318;2023-05-09T10:27:18;100546.13;;;22.04;100.00
3917;BME280;1973;50.518;7.318;2023-05-09T10:30:01;100527.06;;;22.06;100.00
3917;BME280;1973;50.518;7.318;2023-05-09T10:32:37;100531.69;;;22.15;100.00
3917;BME280;1973;50.518;7.318;2023-05-09T10:35:09;100515.72;;;22.16;100.00
3917;BME280;1973;50.518;7.318;2023-05-09T10:37:39;100506.63;;;22.24;100.00
3917;BME280;1973;50.518;7.318;2023-05-09T10:40:07;100505.38;;;22.35;100.00
3917;BME280;1973;50.518;7.318;2023-05-09T10:42:34;100508.63;;;22.42;100.00
3917;BME280;1973;50.518;7.318;2023-05-09T10:45:01;100498.94;;;22.53;100.00
3917;BME280;1973;50.518;7.318;2023-05-09T10:47:28;100504.63;;;22.67;100.00
3917;BME280;1973;50.518;7.318;2023-05-09T10:49:57;100500.34;;;22.74;100.00
3917;BME280;1973;50.518;7.318;2023-05-09T10:52:30;100502.06;;;22.89;100.00
3917;BME280;1973;50.518;7.318;2023-05-09T10:55:02;100497.28;;;22.90;100.00
3917;BME280;1973;50.518;7.318;2023-05-09T10:57:30;100490.78;;;22.75;100.00
3917;BME280;1973;50.518;7.318;2023-05-09T10:59:57;100487.88;;;22.80;100.00
3917;BME280;1973;50.518;7.318;2023-05-09T11:02:25;100475.06;;;22.74;100.00
3917;BME280;1973;50.518;7.318;2023-05-09T11:05:18;100470.50;;;22.78;100.00
3917;BME280;1973;50.518;7.318;2023-05-09T11:07:45;100462.78;;;22.70;100.00
3917;BME280;1973;50.518;7.318;2023-05-09T11:10:16;100455.41;;;22.74;100.00
3917;BME280;1973;50.518;7.318;2023-05-09T11:12:57;100450.03;;;22.78;100.00
3917;BME280;1973;50.518;7.318;2023-05-09T11:15:25;100446.38;;;22.77;100.00
3917;BME280;1973;50.518;7.318;2023-05-09T11:18:06;100437.56;;;22.84;98.56
3917;BME280;1973;50.518;7.318;2023-05-09T11:20:34;100437.88;;;22.64;100.00
3917;BME280;1973;50.518;7.318;2023-05-09T11:23:03;100435.56;;;22.66;100.00
3917;BME280;1973;50.518;7.318;2023-05-09T11:25:31;100443.88;;;22.57;100.00
3917;BME280;1973;50.518;7.318;2023-05-09T11:28:00;100431.19;;;22.60;100.00
3917;BME280;1973;50.518;7.318;2023-05-09T11:30:40;100426.38;;;22.47;98.34
3917;BME280;1973;50.518;7.318;2023-05-09T11:33:26;100419.69;;;22.43;99.50
3917;BME280;1973;50.518;7.318;2023-05-09T11:39:04;100413.38;;;22.51;100.00
3917;BME280;1973;50.518;7.318;2023-05-09T11:41:42;100403.19;;;22.55;100.00
3917;BME280;1973;50.518;7.318;2023-05-09T11:44:15;100403.97;;;22.60;99.46
3917;BME280;1973;50.518;7.318;2023-05-09T11:46:44;100397.75;;;22.63;99.66
3917;BME280;1973;50.518;7.318;2023-05-09T11:49:11;100396.84;;;22.68;99.75
3917;BME280;1973;50.518;7.318;2023-05-09T11:51:38;100395.34;;;22.75;99.76
3917;BME280;1973;50.518;7.318;2023-05-09T11:54:05;100387.66;;;22.81;98.48
3917;BME280;1973;50.518;7.318;2023-05-09T11:56:36;100385.69;;;22.82;96.10
3917;BME280;1973;50.518;7.318;2023-05-09T11:59:03;100386.50;;;22.82;96.81
3917;BME280;1973;50.518;7.318;2023-05-09T12:01:29;100379.88;;;22.92;96.46
3917;BME280;1973;50.518;7.318;2023-05-09T12:03:57;100371.06;;;22.98;95.18
3917;BME280;1973;50.518;7.318;2023-05-09T12:06:24;100377.97;;;23.06;92.92
3917;BME280;1973;50.518;7.318;2023-05-09T12:08:55;100363.59;;;23.21;90.16
3917;BME280;1973;50.518;7.318;2023-05-09T12:11:23;100360.69;;;23.26;86.54
3917;BME280;1973;50.518;7.318;2023-05-09T12:13:51;100360.06;;;23.29;83.66
3917;BME280;1973;50.518;7.318;2023-05-09T12:16:18;100350.94;;;23.37;81.28
3917;BME280;1973;50.518;7.318;2023-05-09T12:18:47;100353.13;;;23.40;80.04
3917;BME280;1973;50.518;7.318;2023-05-09T12:21:15;100348.47;;;23.49;75.81
3917;BME280;1973;50.518;7.318;2023-05-09T12:23:42;100351.28;;;23.63;75.86
3917;BME280;1973;50.518;7.318;2023-05-09T12:26:09;100341.38;;;23.65;72.77
3917;BME280;1973;50.518;7.318;2023-05-09T12:28:36;100333.34;;;23.72;74.13
3917;BME280;1973;50.518;7.318;2023-05-09T12:31:03;100340.88;;;23.63;72.43
3917;BME280;1973;50.518;7.318;2023-05-09T12:33:31;100332.41;;;23.36;69.73
3917;BME280;1973;50.518;7.318;2023-05-09T12:36:05;100327.22;;;23.43;71.11
3917;BME280;1973;50.518;7.318;2023-05-09T12:38:32;100319.97;;;23.42;73.26
3917;BME280;1973;50.518;7.318;2023-05-09T12:41:03;100325.59;;;23.42;73.20
3917;BME280;1973;50.518;7.318;2023-05-09T12:43:31;100307.88;;;23.55;72.79
3917;BME280;1973;50.518;7.318;2023-05-09T12:45:58;100304.09;;;23.73;72.55
3917;BME280;1973;50.518;7.318;2023-05-09T12:48:25;100299.03;;;23.98;73.68
3917;BME280;1973;50.518;7.318;2023-05-09T12:50:52;100291.50;;;24.07;68.17
3917;BME280;1973;50.518;7.318;2023-05-09T12:53:23;100289.69;;;24.24;67.83
3917;BME280;1973;50.518;7.318;2023-05-09T12:55:54;100286.94;;;24.33;66.02
3917;BME280;1973;50.518;7.318;2023-05-09T12:58:21;100285.84;;;24.43;68.34
3917;BME280;1973;50.518;7.318;2023-05-09T13:00:47;100288.09;;;24.54;66.58
3917;BME280;1973;50.518;7.318;2023-05-09T13:03:40;100283.38;;;24.41;60.20
3917;BME280;1973;50.518;7.318;2023-05-09T13:06:11;100299.50;;;24.27;62.09
3917;BME280;1973;50.518;7.318;2023-05-09T13:08:39;100271.16;;;24.10;64.16
3917;BME280;1973;50.518;7.318;2023-05-09T13:11:09;100268.50;;;24.05;62.24
3917;BME280;1973;50.518;7.318;2023-05-09T13:13:42;100267.84;;;24.08;63.58
3917;BME280;1973;50.518;7.318;2023-05-09T13:16:08;100267.06;;;23.94;63.20
3917;BME280;1973;50.518;7.318;2023-05-09T13:18:37;100258.31;;;23.95;63.59
3917;BME280;1973;50.518;7.318;2023-05-09T13:21:03;100258.25;;;23.87;63.31
3917;BME280;1973;50.518;7.318;2023-05-09T13:23:30;100251.59;;;23.69;63.05
3917;BME280;1973;50.518;7.318;2023-05-09T13:25:56;100251.94;;;23.67;62.62
3917;BME280;1973;50.518;7.318;2023-05-09T13:28:22;100247.16;;;23.68;65.33